Bessemer, Alabama
Current Conditions -  °F | °C
As of 9:53 AM on Saturday 20 Dec 2014 (Local Time) from KBHM Reporting Station
Overcast Overcast  
Wind Chill: 42°   Ceiling: 3200
Heat Index: 44°   Visibility: 8mi
Dew Point: 38°   Wind: 5mph
Humidity: 79%   Direction: 40°NE
Pressure: 30.25"   Gusts: NA
Location:  33.4°N, 86.95°W
Report Text: KBHM 201553Z 04004KT 8SM OVC032 07/03 A3025 RMK AO2 SLP246 T00670033
Loading
Personal Weather Stations






























Interactive Weather Map New forecast layout! Learn more

10-Day Weather Forecast

Advertisements
Track Severe Weather on mobile